• Join FlightAware (Why Join?)
  • Login
  • US Flag 
07:21AM EDT


 

Airport Tracker/Info


-or-


 

Live Flight TrackerFlight Track Log ✈ N600GD ✈ 03-Nov-2013 ✈ KTAN - KFSO

Flight Track Log - Related Links

Times and Time Zones

All times are in EST time to prevent confusion due to time zone crossing. See the N600GD flight status page for this flight to view local times or setup timezone preferences in your user account.

Time Position Orientation Groundspeed Altitude Reporting Facility
EST Latitude Longitude Course Direction KTS MPH feet Rate Location/Type
10:32AM 41.8736 -71.0275 344° North 107 123 500  Level Boston Center
10:32AM 41.8728 -71.0533 268° West 100 115 1,200 720 Climbing Boston Center
10:33AM 41.8753 -71.0653 286° West 102 117 1,200 960 Level Boston Center
10:33AM 41.8769 -71.0981 274° West 121 139 2,200 1,080 Climbing Boston Center
10:34AM 41.9107 -71.4005 277° West  Level FlightAware Approximate
10:34AM 41.8781 -71.1094 277° West 118 136 2,300  Level Boston Center
10:35AM 41.9158 -71.4554 277° West  Level FlightAware Approximate
10:35AM 41.8772 -71.1500 268° West 132 152 3,100  Level Boston Center
10:35AM 41.8781 -71.1561 280° West 128 147 3,200 720 Climbing Boston Center
10:36AM 41.9543 -71.4752 346° North  Level Estimated
10:36AM 41.8894 -71.2067 287° West 132 152 4,000  Level Boston Center
10:36AM 41.8889 -71.2411 269° West 129 148 4,900 960 Climbing Boston Center
10:37AM 41.9927 -71.4951 344° North  Level Estimated
10:37AM 41.8925 -71.2533 292° West 124 143 5,000  Level Boston Center
10:38AM 41.8964 -71.2939 277° West 110 127 5,900 600 Climbing Boston Center
10:39AM 41.8997 -71.3258 278° West 125 144 6,100 60 Climbing Boston Center
10:39AM 41.9022 -71.3400 283° West 125 144 6,000  Descending Boston Center
10:40AM 41.9056 -71.3828 276° West 146 168 6,100  Climbing Boston Center
10:40AM 41.9078 -71.3978 281° West 144 166 6,000  Descending Boston Center
10:41AM 41.9117 -71.4372 278° West 151 174 6,100  Climbing Boston Center
10:41AM 41.9133 -71.4536 278° West 151 174 6,000  Descending Boston Center
10:42AM 41.9172 -71.4942 277° West 151 174 6,100  Climbing Boston Center
10:42AM 41.9194 -71.5086 282° West 150 173 6,000  Descending Boston Center
10:43AM 41.9228 -71.5514 276° West 152 175 6,100  Climbing Boston Center
10:43AM 41.9253 -71.5644 284° West 151 174 6,000 -120 Descending Boston Center
10:44AM 41.9308 -71.6200 278° West 151 174 6,000  Level Boston Center
10:45AM 41.9364 -71.6689 279° West 153 176 6,100 -120 Climbing Boston Center
10:45AM 41.9372 -71.6806 275° West 152 175 5,900 -120 Descending Boston Center
10:46AM 41.9436 -71.7319 280° West 154 177 6,000  Climbing Boston Center
10:46AM 41.9433 -71.7369 266° West 154 177 5,900  Descending Boston Center
10:47AM 41.9483 -71.7856 278° West 154 177 6,000  Climbing Boston Center
10:47AM 41.9489 -71.7931 276° West 153 176 5,900  Descending Boston Center
10:48AM 41.9553 -71.8397 280° West 152 175 6,000  Climbing Boston Center
10:48AM 41.9600 -71.8461 315° West 151 174 5,900  Descending Boston Center
10:49AM 41.9925 -71.8583 344° North 143 165 6,000  Climbing Boston Center
10:49AM 42.0014 -71.8614 346° North 143 165 5,900  Descending Boston Center
10:50AM 42.0303 -71.8742 342° North 145 167 6,000  Climbing Boston Center
10:50AM 42.0406 -71.8756 354° North 144 166 5,900  Descending Boston Center
10:51AM 42.0789 -71.8911 343° North 146 168 6,000 60 Climbing Boston Center
10:51AM 42.0803 -71.8883 56° Northeast 148 170 6,000  Level Boston Center
10:52AM 42.1192 -71.9036 344° North 146 168 6,000  Level Boston Center
10:53AM 42.1556 -71.9178 344° North 143 165 6,000  Level Boston Center
10:53AM 42.1589 -71.9194 340° North 142 163 6,000  Level Boston Center
10:54AM 42.1933 -71.9336 343° North 144 166 6,000  Level Boston Center
10:54AM 42.1972 -71.9339 357° North 145 167 6,000  Level Boston Center
10:55AM 42.2353 -71.9467 346° North 141 162 6,000  Level Boston Center
10:56AM 42.2769 -71.9608 346° North 143 165 6,000  Level Boston Center
10:57AM 42.3156 -71.9753 345° North 144 166 6,000  Level Boston Center
10:58AM 42.3561 -71.9878 347° North 152 175 6,000  Level Boston Center
10:59AM 42.3947 -72.0017 345° North 145 167 6,000  Level Boston Center
11:00AM 42.4372 -72.0186 344° North 144 166 6,000  Level Boston Center
11:01AM 42.4750 -72.0319 345° North 141 162 6,000  Level Boston Center
11:02AM 42.5131 -72.0461 345° North 141 162 6,000  Level Boston Center
11:03AM 42.5497 -72.0597 345° North 139 160 6,000  Level Boston Center
11:04AM 42.5856 -72.0942 325° Northwest 145 167 6,000  Level Boston Center
11:05AM 42.6175 -72.1236 326° Northwest 140 161 6,000  Level Boston Center
11:06AM 42.6500 -72.1558 324° Northwest 143 165 6,000  Level Boston Center
11:07AM 42.6831 -72.1869 325° Northwest 145 167 6,000  Level Boston Center
11:08AM 42.7167 -72.2175 326° Northwest 146 168 6,000  Level Boston Center
11:09AM 42.7514 -72.2506 325° Northwest 142 163 6,000  Level Boston Center
11:10AM 42.7819 -72.2803 324° Northwest 145 167 6,000  Level Boston Center
11:11AM 42.8194 -72.2894 350° North 149 171 6,000  Level Boston Center
11:12AM 42.8594 -72.2869 North 145 167 6,000  Level Boston Center
11:13AM 42.9003 -72.2836 North 147 169 6,000  Level Boston Center
11:14AM 42.9406 -72.2811 North 147 169 6,000  Level Boston Center
11:15AM 42.9806 -72.2761 North 145 167 6,000  Level Boston Center
11:16AM 43.0297 -72.2708 North 147 169 6,000  Level Boston Center
11:17AM 43.0728 -72.2678 North 146 168 6,000  Level Boston Center
11:18AM 43.1133 -72.2647 North 146 168 6,000  Level Boston Center
11:19AM 43.1528 -72.2608 North 143 165 6,000  Level Boston Center
11:21AM 43.1933 -72.2572 North 145 167 6,000  Level Boston Center
11:22AM 43.2342 -72.2536 North 147 169 6,000  Level Boston Center
11:23AM 43.2772 -72.2506 North 144 166 6,000  Level Boston Center
11:24AM 43.3192 -72.2467 North 149 171 6,000  Level Boston Center
11:25AM 43.3594 -72.2428 North 147 169 6,000  Level Boston Center
11:26AM 43.3997 -72.2403 North 145 167 6,000  Level Boston Center
11:27AM 43.4422 -72.2367 North 145 167 6,000  Level Boston Center
11:28AM 43.4850 -72.2331 North 149 171 6,000  Level Boston Center
11:29AM 43.5247 -72.2292 North 148 170 6,000  Level Boston Center
11:30AM 43.5667 -72.2253 North 149 171 6,000  Level Boston Center
11:31AM 43.6081 -72.2228 North 149 171 6,000  Level Boston Center
11:32AM 43.6489 -72.2183 North 149 171 6,000  Level Boston Center
11:33AM 43.6906 -72.2172 North 149 171 6,000  Level Boston Center
11:34AM 43.7275 -72.2453 331° Northwest 154 177 6,000  Level Boston Center
11:35AM 43.7650 -72.2647 339° North 150 173 6,000  Level Boston Center
11:36AM 43.8022 -72.2858 338° Northwest 147 169 6,000  Level Boston Center
11:37AM 43.8469 -72.3122 337° Northwest 146 168 6,000 180 Level Boston Center
11:38AM 43.8836 -72.3333 337° Northwest 145 167 6,400 420 Climbing Boston Center
11:39AM 43.9167 -72.3536 336° Northwest 140 161 6,900 300 Climbing Boston Center
11:40AM 43.9483 -72.3694 340° North 132 152 7,100 60 Climbing Boston Center
11:41AM 43.9847 -72.3886 339° North 133 153 7,100  Level Boston Center
11:42AM 44.0286 -72.4161 336° Northwest 147 169 7,100  Level Boston Center
11:43AM 44.0658 -72.4378 337° Northwest 148 170 7,100 -60 Level Boston Center
11:44AM 44.1033 -72.4628 334° Northwest 148 170 7,000 -60 Descending Boston Center
11:46AM 44.1552 -72.5030 331° Northwest  Level FlightAware Approximate
11:52AM 44.3994 -72.6883 329° Northwest 149 171 7,000  Level Boston Center
11:53AM 44.3841 -72.6816 331° Northwest  Level FlightAware Approximate
11:53AM 44.4347 -72.7150 332° Northwest 146 168 7,000  Level Boston Center
11:54AM 44.4168 -72.7073 331° Northwest  Level FlightAware Approximate
11:54AM 44.4725 -72.7433 332° Northwest 144 166 7,000  Level Boston Center
11:55AM 44.4495 -72.7329 331° Northwest  Level FlightAware Approximate
11:55AM 44.5086 -72.7708 331° Northwest 148 170 7,000  Level Boston Center
11:56AM 44.4842 -72.7528 338° Northwest  Level FlightAware Approximate
11:56AM 44.5436 -72.7969 332° Northwest 145 167 7,000  Level Boston Center
11:57AM 44.5189 -72.7727 338° Northwest  Level FlightAware Approximate
11:57AM 44.5822 -72.8250 333° Northwest 146 168 6,500  Level Boston Center
11:58AM 44.5536 -72.7925 338° Northwest  Level FlightAware Approximate
11:58AM 44.6181 -72.8533 331° Northwest 150 173 6,000  Level Boston Center
11:59AM 44.5866 -72.8170 329° Northwest  Level FlightAware Approximate
11:59AM 44.6517 -72.8792 331° Northwest 149 171 6,000  Level Boston Center
12:00PM 44.6186 -72.8444 329° Northwest  Level FlightAware Approximate
12:01PM 44.6506 -72.8718 329° Northwest  Level FlightAware Approximate
12:02PM 44.6825 -72.8993 329° Northwest  Level FlightAware Approximate